Time;durP1;ratioP1;P1;durP2;ratioP2;P2;SDS_P1;SDS_P2;PMS_P1;PMS_P2;Temp;Humidity;BMP_temperature;BMP_pressure;BME280_temperature;BME280_humidity;BME280_pressure;Samples;Min_cycle;Max_cycle;Signal;HPM_P1;HPM_P2
2021/08/28 00:01:35;;;;;;;1.92;0.85;;;;;20.60;101869.00;;;;4992798;28;20205;-78
2021/08/28 00:04:02;;;;;;;1.60;0.88;;;;;20.60;101870.00;;;;4987087;28;20193;-78
2021/08/28 00:06:29;;;;;;;2.88;1.10;;;;;20.60;101859.00;;;;4993010;28;20205;-78
2021/08/28 00:08:57;;;;;;;1.95;1.10;;;;;20.60;101856.00;;;;4992519;28;20198;-78
2021/08/28 00:11:24;;;;;;;4.78;1.33;;;;;20.60;101857.00;;;;4992396;28;20209;-79
2021/08/28 00:13:52;;;;;;;2.35;0.77;;;;;20.60;101849.00;;;;4991597;28;20205;-78
2021/08/28 00:16:20;;;;;;;3.88;1.27;;;;;20.60;101851.00;;;;4992468;28;20205;-78
2021/08/28 00:18:47;;;;;;;2.30;0.70;;;;;20.60;101851.00;;;;4984678;28;20198;-78
2021/08/28 00:21:14;;;;;;;3.58;1.15;;;;;20.60;101857.00;;;;4988423;28;20219;-78
2021/08/28 00:23:42;;;;;;;1.92;1.20;;;;;20.60;101844.00;;;;4991994;28;20198;-78
2021/08/28 00:26:09;;;;;;;2.20;0.90;;;;;20.60;101849.00;;;;4991758;28;20214;-78
2021/08/28 00:28:36;;;;;;;2.70;1.70;;;;;20.60;101844.00;;;;4992208;28;20205;-78
2021/08/28 00:31:05;;;;;;;2.05;0.82;;;;;20.60;101846.00;;;;4990954;28;20229;-78
2021/08/28 00:33:32;;;;;;;1.50;1.17;;;;;20.60;101847.00;;;;4992380;28;20225;-78
2021/08/28 00:35:59;;;;;;;2.10;1.30;;;;;20.60;101838.00;;;;4991898;28;20206;-78
2021/08/28 00:38:27;;;;;;;3.42;1.45;;;;;20.60;101838.00;;;;4992273;28;20298;-78
2021/08/28 00:40:56;;;;;;;2.63;1.05;;;;;20.60;101834.00;;;;4991286;28;20225;-78
2021/08/28 00:43:24;;;;;;;1.48;1.13;;;;;20.60;101832.00;;;;4971857;28;20276;-78
2021/08/28 00:45:51;;;;;;;4.82;0.88;;;;;20.60;101829.00;;;;4972627;28;20202;-78
2021/08/28 00:48:20;;;;;;;2.17;1.02;;;;;20.60;101830.00;;;;4972726;28;20198;-78
2021/08/28 00:50:47;;;;;;;4.40;1.67;;;;;20.60;101824.00;;;;4972125;28;20253;-78
2021/08/28 00:53:18;;;;;;;5.75;1.30;;;;;20.60;101836.00;;;;4972305;28;20210;-77
2021/08/28 00:55:47;;;;;;;2.00;1.20;;;;;20.60;101828.00;;;;4971743;28;20225;-77
2021/08/28 00:58:15;;;;;;;2.00;1.05;;;;;20.60;101834.00;;;;4975306;28;20663;-78
2021/08/28 01:00:44;;;;;;;4.05;1.10;;;;;20.70;101829.00;;;;4991582;28;20232;-77
2021/08/28 01:03:14;;;;;;;3.15;1.25;;;;;20.70;101829.00;;;;4991733;28;20213;-77
2021/08/28 01:05:55;;;;;;;3.45;1.20;;;;;20.60;101831.00;;;;4990732;28;20210;-77
2021/08/28 01:08:30;;;;;;;2.63;1.05;;;;;20.70;101833.00;;;;4991172;28;20205;-77
2021/08/28 01:11:08;;;;;;;2.50;1.10;;;;;20.70;101831.00;;;;4991504;28;20286;-77
2021/08/28 01:13:38;;;;;;;2.03;1.05;;;;;20.70;101834.00;;;;4991457;28;20242;-77
2021/08/28 01:16:07;;;;;;;2.83;1.08;;;;;20.70;101839.00;;;;4990460;28;20201;-78
2021/08/28 01:18:35;;;;;;;2.05;1.00;;;;;20.70;101835.00;;;;4991298;28;20204;-78
2021/08/28 01:21:12;;;;;;;2.65;1.02;;;;;20.70;101836.00;;;;4991180;28;20387;-78
2021/08/28 01:23:40;;;;;;;3.85;1.10;;;;;20.80;101840.00;;;;4990865;28;20288;-78
2021/08/28 01:26:15;;;;;;;3.63;1.20;;;;;20.80;101845.00;;;;4991376;28;20590;-78
2021/08/28 01:28:49;;;;;;;3.33;0.98;;;;;20.80;101838.00;;;;4990930;28;20201;-77
2021/08/28 01:31:19;;;;;;;2.90;1.20;;;;;20.80;101836.00;;;;4991097;28;20233;-78
2021/08/28 01:33:48;;;;;;;2.30;1.33;;;;;20.80;101838.00;;;;4990533;28;20224;-78
2021/08/28 01:36:16;;;;;;;2.42;1.58;;;;;20.90;101834.00;;;;4990477;28;20208;-78
2021/08/28 01:38:44;;;;;;;3.97;1.30;;;;;20.80;101837.00;;;;4990560;28;20198;-78
2021/08/28 01:41:12;;;;;;;1.83;1.27;;;;;20.90;101843.00;;;;4990731;28;20225;-78
2021/08/28 01:43:40;;;;;;;7.13;1.27;;;;;20.90;101844.00;;;;4990034;28;20613;-78
2021/08/28 01:46:07;;;;;;;3.55;1.40;;;;;20.90;101841.00;;;;4990756;28;20210;-78
2021/08/28 01:48:36;;;;;;;2.70;1.60;;;;;20.90;101847.00;;;;4990800;28;20197;-78
2021/08/28 01:51:04;;;;;;;3.70;0.98;;;;;20.90;101843.00;;;;4989711;28;20622;-78
2021/08/28 01:53:31;;;;;;;3.47;1.20;;;;;20.90;101848.00;;;;4990735;28;20213;-78
2021/08/28 01:55:59;;;;;;;4.30;1.50;;;;;20.90;101843.00;;;;4990838;28;20251;-78
2021/08/28 01:58:29;;;;;;;1.50;1.02;;;;;20.90;101846.00;;;;4989677;28;20217;-78
2021/08/28 02:00:57;;;;;;;3.00;1.05;;;;;21.00;101837.00;;;;4990439;28;20225;-78
2021/08/28 02:03:24;;;;;;;3.13;1.30;;;;;21.00;101840.00;;;;4990200;28;20205;-78
2021/08/28 02:06:01;;;;;;;1.42;0.85;;;;;20.90;101840.00;;;;4990757;28;20213;-78
2021/08/28 02:08:32;;;;;;;3.22;1.30;;;;;21.00;101840.00;;;;4989087;28;20206;-78
2021/08/28 02:11:04;;;;;;;5.82;1.38;;;;;21.00;101840.00;;;;4990417;28;20209;-77
2021/08/28 02:13:34;;;;;;;4.43;1.52;;;;;21.00;101830.00;;;;4990140;28;20198;-77
2021/08/28 02:16:09;;;;;;;2.97;1.13;;;;;21.00;101832.00;;;;4990508;28;20210;-77
2021/08/28 02:18:44;;;;;;;3.05;1.05;;;;;21.00;101834.00;;;;4990028;28;20205;-77
2021/08/28 02:21:15;;;;;;;2.50;1.13;;;;;21.00;101846.00;;;;4990050;28;20224;-77
2021/08/28 02:23:48;;;;;;;2.50;1.02;;;;;21.00;101849.00;;;;4989629;28;20304;-77
2021/08/28 02:26:22;;;;;;;3.50;1.27;;;;;21.10;101829.00;;;;4989867;28;20285;-77
2021/08/28 02:28:52;;;;;;;3.60;1.40;;;;;21.10;101835.00;;;;4989943;28;20237;-77
2021/08/28 02:31:22;;;;;;;3.25;1.50;;;;;21.10;101838.00;;;;4989583;28;20229;-77
2021/08/28 02:33:51;;;;;;;2.67;0.98;;;;;21.10;101843.00;;;;4989329;28;20226;-77
2021/08/28 02:36:20;;;;;;;2.30;1.10;;;;;21.10;101839.00;;;;4990108;28;20201;-77
2021/08/28 02:38:49;;;;;;;4.93;1.30;;;;;21.10;101836.00;;;;4989961;28;20212;-77
2021/08/28 02:41:17;;;;;;;2.60;1.20;;;;;21.10;101837.00;;;;4989726;28;20225;-77
2021/08/28 02:43:47;;;;;;;3.00;1.50;;;;;21.10;101837.00;;;;4990009;28;20228;-77
2021/08/28 02:46:15;;;;;;;2.45;1.48;;;;;21.10;101831.00;;;;4989556;28;20212;-77
2021/08/28 02:48:44;;;;;;;2.20;1.35;;;;;21.10;101834.00;;;;4989389;28;20213;-77
2021/08/28 02:51:12;;;;;;;2.40;1.25;;;;;21.20;101840.00;;;;4989741;28;20208;-77
2021/08/28 02:53:44;;;;;;;3.10;1.20;;;;;21.10;101833.00;;;;4989724;28;20201;-77
2021/08/28 02:56:13;;;;;;;1.80;0.95;;;;;21.10;101836.00;;;;4989246;28;20238;-77
2021/08/28 02:58:41;;;;;;;4.85;1.40;;;;;21.10;101837.00;;;;4989299;28;20679;-77
2021/08/28 03:01:09;;;;;;;3.80;1.60;;;;;21.20;101833.00;;;;4989473;28;20231;-77
2021/08/28 03:03:38;;;;;;;2.65;1.25;;;;;21.20;101831.00;;;;4989782;28;20213;-77
2021/08/28 03:06:06;;;;;;;1.55;1.10;;;;;21.20;101826.00;;;;4989675;28;20225;-76
2021/08/28 03:08:36;;;;;;;2.03;1.00;;;;;21.20;101824.00;;;;4989448;28;20194;-77
2021/08/28 03:11:05;;;;;;;2.35;1.30;;;;;21.20;101821.00;;;;4989889;28;20216;-77
2021/08/28 03:13:32;;;;;;;2.70;1.30;;;;;21.20;101814.00;;;;4989620;28;20197;-77
2021/08/28 03:16:00;;;;;;;2.40;1.40;;;;;21.20;101816.00;;;;4988873;28;20214;-77
2021/08/28 03:18:30;;;;;;;3.83;1.10;;;;;21.20;101821.00;;;;4986480;28;20224;-77
2021/08/28 03:20:58;;;;;;;3.28;1.45;;;;;21.20;101819.00;;;;4984125;28;20229;-77
2021/08/28 03:23:28;;;;;;;3.92;1.10;;;;;21.20;101824.00;;;;4993928;28;20208;-78
2021/08/28 03:25:57;;;;;;;4.25;1.48;;;;;21.30;101826.00;;;;4993792;28;20289;-77
2021/08/28 03:28:27;;;;;;;3.40;1.38;;;;;21.30;101823.00;;;;4993239;28;20552;-77
2021/08/28 03:30:55;;;;;;;2.50;1.45;;;;;21.30;101827.00;;;;4992824;28;20229;-77
2021/08/28 03:33:22;;;;;;;7.07;1.80;;;;;21.30;101826.00;;;;4973468;28;20218;-77
2021/08/28 03:35:51;;;;;;;2.13;1.17;;;;;21.30;101820.00;;;;4973757;28;20214;-78
2021/08/28 03:38:19;;;;;;;2.42;1.20;;;;;21.30;101823.00;;;;4973593;28;20202;-78
2021/08/28 03:40:47;;;;;;;2.92;1.48;;;;;21.30;101828.00;;;;4973567;28;20230;-77
2021/08/28 03:43:14;;;;;;;3.97;1.20;;;;;21.40;101823.00;;;;4974058;28;20198;-78
2021/08/28 03:45:43;;;;;;;2.03;1.30;;;;;21.40;101821.00;;;;4973225;28;20205;-78
2021/08/28 03:48:12;;;;;;;1.98;1.23;;;;;21.40;101825.00;;;;4975797;28;20229;-78
2021/08/28 03:50:39;;;;;;;3.35;1.48;;;;;21.40;101823.00;;;;4993064;28;20209;-78
2021/08/28 03:53:06;;;;;;;4.60;1.08;;;;;21.40;101829.00;;;;4992939;28;20210;-77
2021/08/28 03:55:34;;;;;;;2.33;1.27;;;;;21.40;101827.00;;;;4992614;28;20690;-78
2021/08/28 03:58:01;;;;;;;4.63;1.45;;;;;21.40;101829.00;;;;4992706;28;20206;-77
2021/08/28 04:00:28;;;;;;;4.35;1.45;;;;;21.40;101829.00;;;;4991920;28;20232;-78
2021/08/28 04:02:57;;;;;;;5.43;1.33;;;;;21.40;101827.00;;;;4992189;28;20209;-78
2021/08/28 04:05:24;;;;;;;4.70;1.75;;;;;21.50;101829.00;;;;4992500;28;20220;-78
2021/08/28 04:07:51;;;;;;;1.73;1.25;;;;;21.50;101833.00;;;;4992611;28;20238;-78
2021/08/28 04:10:20;;;;;;;3.03;1.52;;;;;21.50;101831.00;;;;4991471;28;20213;-77
2021/08/28 04:12:47;;;;;;;2.85;1.92;;;;;21.50;101835.00;;;;4992425;28;20209;-78
2021/08/28 04:15:14;;;;;;;3.45;1.05;;;;;21.50;101832.00;;;;4992605;28;20216;-78
2021/08/28 04:17:42;;;;;;;2.42;1.55;;;;;21.50;101837.00;;;;4991943;28;20257;-78
2021/08/28 04:20:11;;;;;;;2.78;1.42;;;;;21.50;101838.00;;;;4992384;28;20209;-77
2021/08/28 04:22:38;;;;;;;2.97;1.25;;;;;21.60;101840.00;;;;4991995;28;20212;-78
2021/08/28 04:25:07;;;;;;;2.47;1.33;;;;;21.60;101838.00;;;;4992558;28;20209;-78
2021/08/28 04:27:35;;;;;;;2.78;1.27;;;;;21.60;101836.00;;;;4992641;28;20206;-77
2021/08/28 04:30:02;;;;;;;2.25;1.45;;;;;21.60;101834.00;;;;4992038;28;20583;-77
2021/08/28 04:32:29;;;;;;;4.80;1.63;;;;;21.60;101835.00;;;;4990227;28;20241;-78
2021/08/28 04:34:57;;;;;;;2.75;1.23;;;;;21.60;101835.00;;;;4992046;28;20202;-77
2021/08/28 04:37:25;;;;;;;1.10;1.00;;;;;21.60;101836.00;;;;4992302;28;20205;-78
2021/08/28 04:39:52;;;;;;;3.90;1.40;;;;;21.60;101835.00;;;;4991913;28;20210;-78
2021/08/28 04:42:20;;;;;;;3.42;1.65;;;;;21.60;101835.00;;;;4992227;28;20229;-77
2021/08/28 04:44:47;;;;;;;2.17;1.15;;;;;21.60;101827.00;;;;4991492;28;20201;-79
2021/08/28 04:47:14;;;;;;;2.17;1.17;;;;;21.60;101821.00;;;;4991424;28;20604;-79
2021/08/28 04:49:41;;;;;;;2.10;1.30;;;;;21.60;101826.00;;;;4991612;28;20198;-79
2021/08/28 04:52:08;;;;;;;1.92;1.23;;;;;21.70;101825.00;;;;4991734;28;20711;-79
2021/08/28 04:54:37;;;;;;;2.08;1.35;;;;;21.70;101833.00;;;;4991909;28;20209;-79
2021/08/28 04:57:04;;;;;;;4.60;1.20;;;;;21.70;101832.00;;;;4991598;28;20202;-79
2021/08/28 04:59:32;;;;;;;2.28;1.48;;;;;21.70;101832.00;;;;4991521;28;20238;-79
2021/08/28 05:02:01;;;;;;;4.18;2.05;;;;;21.70;101836.00;;;;4991249;28;20236;-79
2021/08/28 05:04:28;;;;;;;3.08;1.55;;;;;21.70;101841.00;;;;4991435;28;20201;-77
2021/08/28 05:06:55;;;;;;;2.55;1.70;;;;;21.70;101839.00;;;;4991554;28;20202;-77
2021/08/28 05:09:22;;;;;;;3.13;1.10;;;;;21.80;101849.00;;;;4991254;28;20210;-77
2021/08/28 05:11:51;;;;;;;2.83;1.30;;;;;21.80;101844.00;;;;4991514;28;20205;-77
2021/08/28 05:14:18;;;;;;;2.80;1.58;;;;;21.80;101848.00;;;;4990630;28;20213;-77
2021/08/28 05:16:45;;;;;;;3.72;1.77;;;;;21.80;101852.00;;;;4990991;28;20594;-77
2021/08/28 05:19:13;;;;;;;2.33;1.50;;;;;21.80;101851.00;;;;4991137;28;20198;-78
2021/08/28 05:21:40;;;;;;;2.50;1.30;;;;;21.80;101853.00;;;;4991183;28;20633;-78
2021/08/28 05:24:07;;;;;;;2.35;1.50;;;;;21.80;101858.00;;;;4991163;28;20212;-78
2021/08/28 05:26:34;;;;;;;3.45;1.90;;;;;21.80;101850.00;;;;4990777;28;20205;-78
2021/08/28 05:29:03;;;;;;;2.42;1.60;;;;;21.80;101858.00;;;;4991139;28;20209;-78
2021/08/28 05:31:30;;;;;;;6.68;1.33;;;;;21.90;101861.00;;;;4990120;28;20234;-77
2021/08/28 05:33:58;;;;;;;2.17;1.58;;;;;21.90;101873.00;;;;4990910;28;20221;-78
2021/08/28 05:36:25;;;;;;;2.80;1.40;;;;;21.90;101862.00;;;;4990953;28;20209;-78
2021/08/28 05:38:53;;;;;;;3.15;2.05;;;;;21.90;101870.00;;;;4990259;28;20220;-78
2021/08/28 05:41:20;;;;;;;4.70;1.48;;;;;21.90;101863.00;;;;4990237;28;20630;-77
2021/08/28 05:43:47;;;;;;;4.05;1.55;;;;;21.90;101859.00;;;;4990512;28;20595;-77
2021/08/28 05:46:16;;;;;;;8.07;2.60;;;;;21.90;101871.00;;;;4991093;28;20209;-78
2021/08/28 05:48:43;;;;;;;3.17;1.75;;;;;22.00;101870.00;;;;4990573;28;20212;-78
2021/08/28 05:51:10;;;;;;;1.92;1.40;;;;;22.00;101869.00;;;;4990026;28;20568;-78
2021/08/28 05:53:37;;;;;;;2.60;1.70;;;;;22.00;101869.00;;;;4990798;28;20205;-78
2021/08/28 05:56:05;;;;;;;3.63;1.52;;;;;22.00;101865.00;;;;4990668;28;20228;-78
2021/08/28 05:58:33;;;;;;;3.33;1.38;;;;;22.00;101864.00;;;;4990947;28;20205;-78
2021/08/28 06:01:01;;;;;;;3.42;1.58;;;;;22.00;101871.00;;;;4989777;28;20419;-78
2021/08/28 06:03:29;;;;;;;2.67;1.65;;;;;21.90;101869.00;;;;4990225;28;20209;-78
2021/08/28 06:05:57;;;;;;;4.50;1.70;;;;;22.00;101865.00;;;;4990033;28;20213;-78
2021/08/28 06:08:24;;;;;;;3.45;1.60;;;;;21.90;101865.00;;;;4989960;28;20232;-78
2021/08/28 06:10:51;;;;;;;3.95;1.88;;;;;21.90;101863.00;;;;4989647;28;20201;-78
2021/08/28 06:13:18;;;;;;;3.67;2.10;;;;;22.00;101869.00;;;;4990296;28;20206;-78
2021/08/28 06:15:46;;;;;;;3.38;1.50;;;;;22.00;101859.00;;;;4990072;28;20214;-78
2021/08/28 06:18:13;;;;;;;3.50;1.65;;;;;22.00;101865.00;;;;4990068;28;20205;-78
2021/08/28 06:20:42;;;;;;;2.80;1.92;;;;;21.90;101870.00;;;;4979441;28;20202;-78
2021/08/28 06:23:09;;;;;;;4.03;1.88;;;;;22.00;101872.00;;;;4989156;28;20201;-78
2021/08/28 06:25:36;;;;;;;4.25;1.35;;;;;22.00;101872.00;;;;4990239;28;20205;-78
2021/08/28 06:28:03;;;;;;;3.20;1.20;;;;;22.00;101877.00;;;;4989952;28;20303;-78
2021/08/28 06:30:31;;;;;;;3.42;2.03;;;;;22.00;101876.00;;;;4990091;28;20213;-78
2021/08/28 06:32:58;;;;;;;3.40;1.83;;;;;22.10;101884.00;;;;4989743;28;20217;-78
2021/08/28 06:35:25;;;;;;;2.80;1.60;;;;;22.10;101882.00;;;;4990167;28;20202;-78
2021/08/28 06:37:54;;;;;;;8.40;2.25;;;;;22.10;101877.00;;;;4989729;28;20210;-79
2021/08/28 06:40:21;;;;;;;3.75;1.65;;;;;22.10;101888.00;;;;4989959;28;20704;-78
2021/08/28 06:42:48;;;;;;;6.65;2.20;;;;;22.10;101882.00;;;;4989814;28;20232;-78
2021/08/28 06:45:16;;;;;;;3.30;2.00;;;;;22.10;101881.00;;;;4989538;28;20212;-78
2021/08/28 06:47:43;;;;;;;4.60;1.77;;;;;22.20;101884.00;;;;4989699;28;20651;-78
2021/08/28 06:50:11;;;;;;;3.97;1.88;;;;;22.20;101886.00;;;;4989522;28;20205;-78
2021/08/28 06:52:38;;;;;;;3.78;1.85;;;;;22.20;101880.00;;;;4990079;28;20210;-78
2021/08/28 06:55:08;;;;;;;3.50;2.22;;;;;22.30;101883.00;;;;4989168;28;20202;-78
2021/08/28 06:57:35;;;;;;;4.32;1.77;;;;;22.30;101884.00;;;;4989383;28;20213;-77
2021/08/28 07:00:02;;;;;;;3.47;1.75;;;;;22.40;101894.00;;;;4989500;28;20201;-78
2021/08/28 07:02:30;;;;;;;3.38;1.70;;;;;22.40;101888.00;;;;4989361;28;20233;-78
2021/08/28 07:04:57;;;;;;;4.45;1.48;;;;;22.40;101895.00;;;;4989692;28;20205;-78
2021/08/28 07:07:25;;;;;;;2.60;1.40;;;;;22.50;101893.00;;;;4989606;28;20209;-78
2021/08/28 07:09:52;;;;;;;3.90;2.22;;;;;22.50;101897.00;;;;4989046;28;20201;-78
2021/08/28 07:12:21;;;;;;;3.60;2.22;;;;;22.50;101902.00;;;;4989501;28;20589;-78
2021/08/28 07:14:48;;;;;;;3.97;1.40;;;;;22.50;101901.00;;;;4989140;28;20197;-78
2021/08/28 07:17:15;;;;;;;2.90;1.70;;;;;22.50;101897.00;;;;4989422;28;20209;-78
2021/08/28 07:19:42;;;;;;;3.85;1.75;;;;;22.60;101900.00;;;;4989083;28;20585;-78
2021/08/28 07:22:10;;;;;;;3.90;1.70;;;;;22.60;101896.00;;;;4989022;28;20225;-78
2021/08/28 07:24:37;;;;;;;4.93;2.17;;;;;22.60;101906.00;;;;4989302;28;20202;-78
2021/08/28 07:27:04;;;;;;;3.35;1.77;;;;;22.70;101902.00;;;;4989292;28;20194;-78
2021/08/28 07:29:33;;;;;;;2.95;1.90;;;;;22.70;101902.00;;;;4989235;28;20205;-77
2021/08/28 07:32:01;;;;;;;5.10;2.67;;;;;22.70;101899.00;;;;4988503;28;20241;-79
2021/08/28 07:34:28;;;;;;;4.35;2.03;;;;;22.80;101903.00;;;;4989107;28;20232;-78
2021/08/28 07:36:55;;;;;;;5.05;1.92;;;;;22.80;101896.00;;;;4988750;28;20201;-78
2021/08/28 07:39:22;;;;;;;2.22;1.95;;;;;22.90;101901.00;;;;4989052;28;20205;-79
2021/08/28 07:41:50;;;;;;;3.40;2.30;;;;;22.90;101905.00;;;;4989097;28;20233;-79
2021/08/28 07:44:17;;;;;;;4.07;1.95;;;;;23.00;101910.00;;;;4988916;28;20202;-78
2021/08/28 07:46:48;;;;;;;3.55;1.70;;;;;23.00;101903.00;;;;4988424;28;20198;-79
2021/08/28 07:49:15;;;;;;;2.47;1.60;;;;;23.00;101908.00;;;;4989516;28;20579;-79
2021/08/28 07:51:42;;;;;;;2.97;1.85;;;;;23.00;101910.00;;;;4988921;28;20663;-76
2021/08/28 07:54:09;;;;;;;3.67;1.95;;;;;23.00;101912.00;;;;4989261;28;20197;-78
2021/08/28 07:56:37;;;;;;;2.88;1.85;;;;;23.00;101904.00;;;;4989803;28;20205;-78
2021/08/28 07:59:04;;;;;;;3.72;1.95;;;;;23.00;101905.00;;;;4988506;28;20213;-77
2021/08/28 08:01:32;;;;;;;5.07;2.10;;;;;23.10;101908.00;;;;4989052;28;20233;-78
2021/08/28 08:04:00;;;;;;;5.53;1.90;;;;;23.10;101902.00;;;;4989076;28;20214;-78
2021/08/28 08:06:27;;;;;;;4.75;2.42;;;;;23.10;101909.00;;;;4991113;28;20213;-78
2021/08/28 08:08:55;;;;;;;3.80;1.85;;;;;23.20;101912.00;;;;4992358;28;20213;-78
2021/08/28 08:11:22;;;;;;;6.15;1.88;;;;;23.20;101914.00;;;;4992807;28;20576;-77
2021/08/28 08:13:49;;;;;;;2.72;1.73;;;;;23.20;101921.00;;;;4992494;28;20202;-78
2021/08/28 08:16:16;;;;;;;3.78;1.60;;;;;23.20;101919.00;;;;4992361;28;20201;-78
2021/08/28 08:18:44;;;;;;;3.67;2.20;;;;;23.20;101921.00;;;;4991452;28;20197;-78
2021/08/28 08:21:12;;;;;;;2.75;1.77;;;;;23.20;101917.00;;;;4992505;28;20201;-77
2021/08/28 08:23:39;;;;;;;3.20;1.58;;;;;23.20;101917.00;;;;4991968;28;20701;-79
2021/08/28 08:26:08;;;;;;;3.80;2.58;;;;;23.30;101929.00;;;;4992575;28;20205;-78
2021/08/28 08:28:36;;;;;;;3.15;1.73;;;;;23.30;101924.00;;;;4992625;28;20229;-78
2021/08/28 08:31:03;;;;;;;3.85;2.33;;;;;23.30;101929.00;;;;4991068;28;20233;-77
2021/08/28 08:33:31;;;;;;;2.30;1.52;;;;;23.30;101933.00;;;;4992138;28;20217;-78
2021/08/28 08:35:58;;;;;;;3.55;2.05;;;;;23.40;101935.00;;;;4992170;28;20246;-78
2021/08/28 08:38:26;;;;;;;2.40;1.40;;;;;23.40;101934.00;;;;4991660;28;20585;-78
2021/08/28 08:40:54;;;;;;;5.57;2.38;;;;;23.40;101933.00;;;;4991788;28;20260;-78
2021/08/28 08:43:22;;;;;;;3.20;1.65;;;;;23.50;101926.00;;;;4991514;28;20230;-78
2021/08/28 08:45:50;;;;;;;4.13;2.13;;;;;23.60;101933.00;;;;4991712;28;20202;-78
2021/08/28 08:48:18;;;;;;;3.35;1.92;;;;;23.60;101928.00;;;;4991583;28;20205;-79
2021/08/28 08:50:46;;;;;;;2.10;1.77;;;;;23.80;101946.00;;;;4991140;28;20264;-78
2021/08/28 08:53:18;;;;;;;4.07;1.92;;;;;23.80;101925.00;;;;4991780;28;20213;-78
2021/08/28 08:55:46;;;;;;;2.80;1.98;;;;;23.80;101930.00;;;;4991522;28;20317;-78
2021/08/28 08:58:14;;;;;;;3.10;1.90;;;;;23.90;101934.00;;;;4991496;28;20197;-78
2021/08/28 09:00:42;;;;;;;4.65;2.33;;;;;24.00;101926.00;;;;4991160;28;20667;-78
2021/08/28 09:03:09;;;;;;;4.60;2.22;;;;;24.00;101924.00;;;;4991341;28;20237;-78
2021/08/28 09:05:36;;;;;;;2.70;1.70;;;;;24.10;101936.00;;;;4991798;28;20581;-79
2021/08/28 09:08:04;;;;;;;2.53;1.95;;;;;24.20;101927.00;;;;4991750;28;20228;-77
2021/08/28 09:10:31;;;;;;;3.63;2.00;;;;;24.20;101922.00;;;;4991070;28;20197;-77
2021/08/28 09:13:13;;;;;;;3.35;1.67;;;;;24.20;101927.00;;;;4991543;28;20205;-78
2021/08/28 09:15:45;;;;;;;3.17;1.85;;;;;24.40;101918.00;;;;4991476;28;20209;-77
2021/08/28 09:18:13;;;;;;;2.33;1.90;;;;;24.60;101917.00;;;;4990005;28;20209;-78
2021/08/28 09:20:41;;;;;;;2.58;2.15;;;;;24.70;101920.00;;;;4980449;28;20197;-78
2021/08/28 09:23:10;;;;;;;4.28;2.05;;;;;24.90;101923.00;;;;4991300;28;20228;-78
2021/08/28 09:25:39;;;;;;;2.75;1.85;;;;;25.00;101921.00;;;;4991088;28;20228;-78
2021/08/28 09:28:08;;;;;;;2.55;1.60;;;;;25.10;101924.00;;;;4990431;28;20233;-78
2021/08/28 09:30:38;;;;;;;4.40;2.50;;;;;25.20;101922.00;;;;4990716;28;20201;-78
2021/08/28 09:33:07;;;;;;;2.70;1.75;;;;;25.30;101924.00;;;;4991022;28;20501;-79
2021/08/28 09:35:37;;;;;;;4.47;1.95;;;;;25.30;101925.00;;;;4990972;28;20676;-78
2021/08/28 09:38:08;;;;;;;3.33;1.95;;;;;25.20;101929.00;;;;4990822;28;20198;-79
2021/08/28 09:40:37;;;;;;;3.85;2.05;;;;;25.20;101927.00;;;;4990487;28;20280;-78
2021/08/28 09:43:08;;;;;;;4.10;1.80;;;;;25.10;101931.00;;;;4990391;28;20698;-77
2021/08/28 09:45:36;;;;;;;2.70;2.13;;;;;25.10;101926.00;;;;4990648;28;20220;-78
2021/08/28 09:48:06;;;;;;;3.78;2.17;;;;;25.10;101928.00;;;;4990339;28;20213;-78
2021/08/28 09:50:36;;;;;;;2.50;1.75;;;;;25.00;101932.00;;;;4990846;28;20217;-78
2021/08/28 09:53:07;;;;;;;2.20;1.98;;;;;25.10;101940.00;;;;4990609;28;20204;-78
2021/08/28 09:55:36;;;;;;;3.30;2.10;;;;;25.20;101935.00;;;;4990383;28;20206;-78
2021/08/28 09:58:04;;;;;;;3.33;1.98;;;;;25.40;101939.00;;;;4990283;28;20213;-78
2021/08/28 10:00:34;;;;;;;2.55;1.85;;;;;25.50;101952.00;;;;4990315;28;20213;-77
2021/08/28 10:03:04;;;;;;;5.03;2.00;;;;;25.60;101944.00;;;;4990284;28;20240;-79
2021/08/28 10:05:33;;;;;;;3.90;2.20;;;;;25.70;101943.00;;;;4989664;28;20220;-77
2021/08/28 10:08:02;;;;;;;6.40;2.22;;;;;25.70;101954.00;;;;4990404;28;20543;-78
2021/08/28 10:10:32;;;;;;;3.53;2.03;;;;;25.60;101947.00;;;;4990298;28;20206;-78
2021/08/28 10:13:00;;;;;;;2.53;1.88;;;;;25.60;101955.00;;;;4989926;28;20205;-77
2021/08/28 10:15:28;;;;;;;4.22;2.15;;;;;25.50;101956.00;;;;4989349;28;20209;-78
2021/08/28 10:17:58;;;;;;;3.08;1.83;;;;;25.50;101956.00;;;;4990445;28;20213;-78
2021/08/28 10:20:27;;;;;;;2.55;2.08;;;;;25.40;101954.00;;;;4989895;28;20202;-78
2021/08/28 10:22:57;;;;;;;3.25;2.30;;;;;25.50;101952.00;;;;4989931;28;20230;-78
2021/08/28 10:25:26;;;;;;;2.53;1.67;;;;;25.60;101956.00;;;;4990387;28;20202;-78
2021/08/28 10:27:54;;;;;;;2.03;1.70;;;;;25.70;101959.00;;;;4989167;28;20198;-78
2021/08/28 10:30:23;;;;;;;5.35;2.10;;;;;25.80;101956.00;;;;4989075;28;20228;-78
2021/08/28 10:32:51;;;;;;;6.25;2.33;;;;;25.90;101957.00;;;;4989775;28;20702;-78
2021/08/28 10:35:24;;;;;;;5.90;2.08;;;;;26.00;101950.00;;;;4989639;28;20596;-78
2021/08/28 10:37:51;;;;;;;3.15;2.25;;;;;26.20;101962.00;;;;4989416;28;20202;-78
2021/08/28 10:40:22;;;;;;;3.30;2.33;;;;;26.20;101961.00;;;;4989507;28;20222;-77
2021/08/28 10:42:52;;;;;;;5.38;2.50;;;;;26.20;101962.00;;;;4989660;28;20226;-78
2021/08/28 10:45:26;;;;;;;2.90;1.70;;;;;26.10;101956.00;;;;4989013;28;20212;-77
2021/08/28 10:47:58;;;;;;;2.13;1.77;;;;;26.10;101962.00;;;;4989130;28;20224;-77
2021/08/28 10:50:31;;;;;;;3.38;1.80;;;;;26.10;101962.00;;;;4989487;28;20552;-77
2021/08/28 10:53:01;;;;;;;3.25;1.85;;;;;26.10;101973.00;;;;4989503;28;20264;-78
2021/08/28 10:55:36;;;;;;;4.10;1.90;;;;;26.00;101965.00;;;;4989778;28;20545;-77
2021/08/28 10:58:15;;;;;;;2.22;1.52;;;;;26.10;101955.00;;;;4989561;28;20196;-78
2021/08/28 11:00:44;;;;;;;4.90;2.17;;;;;26.20;101959.00;;;;4989150;28;20205;-78
2021/08/28 11:03:24;;;;;;;2.13;1.63;;;;;26.10;101963.00;;;;4989565;28;20233;-77
2021/08/28 11:06:29;;;;;;;5.28;1.83;;;;;26.10;101966.00;;;;4989468;28;20208;-77
2021/08/28 11:09:00;;;;;;;2.50;1.77;;;;;26.20;101959.00;;;;4988833;28;20208;-78
2021/08/28 11:11:30;;;;;;;2.25;1.77;;;;;26.20;101969.00;;;;4989167;28;20240;-78
2021/08/28 11:14:08;;;;;;;2.85;1.67;;;;;26.10;101959.00;;;;4989079;28;20675;-77
2021/08/28 11:16:54;;;;;;;3.03;1.30;;;;;26.10;101963.00;;;;4989168;28;20215;-77
2021/08/28 11:19:47;;;;;;;4.15;1.60;;;;;26.00;101960.00;;;;4989214;28;20240;-78
2021/08/28 11:22:24;;;;;;;5.57;1.83;;;;;26.10;101965.00;;;;4989400;28;20197;-77
2021/08/28 11:25:00;;;;;;;1.83;1.15;;;;;26.00;101956.00;;;;4989021;28;20211;-78
2021/08/28 11:27:42;;;;;;;3.28;1.60;;;;;26.00;101958.00;;;;4989310;28;20205;-77
2021/08/28 11:30:10;;;;;;;2.67;2.08;;;;;26.00;101954.00;;;;4989025;28;20230;-77
2021/08/28 11:32:38;;;;;;;2.72;1.55;;;;;26.00;101965.00;;;;4988736;28;20241;-78
2021/08/28 11:35:06;;;;;;;2.72;1.42;;;;;26.00;101965.00;;;;4989433;28;20216;-77
2021/08/28 11:37:40;;;;;;;2.28;1.38;;;;;25.90;101958.00;;;;4989311;28;20579;-77
2021/08/28 11:40:28;;;;;;;2.25;1.50;;;;;25.90;101954.00;;;;4989533;28;20202;-77
2021/08/28 11:42:55;;;;;;;2.58;1.40;;;;;26.00;101951.00;;;;4992388;28;20284;-77
2021/08/28 11:45:30;;;;;;;2.70;1.73;;;;;25.90;101951.00;;;;4992590;28;20667;-78
2021/08/28 11:47:57;;;;;;;5.05;1.30;;;;;26.00;101944.00;;;;4993222;28;20205;-78
2021/08/28 11:50:30;;;;;;;4.32;1.58;;;;;26.00;101949.00;;;;4992556;28;20213;-78
2021/08/28 11:52:59;;;;;;;2.17;1.60;;;;;26.10;101949.00;;;;4992666;28;20209;-77
2021/08/28 11:55:27;;;;;;;2.28;1.42;;;;;26.10;101957.00;;;;4992414;28;20236;-78
2021/08/28 11:58:01;;;;;;;4.00;1.50;;;;;26.10;101957.00;;;;4992368;28;20267;-77
2021/08/28 12:00:30;;;;;;;2.55;1.58;;;;;26.20;101964.00;;;;4992635;28;20220;-77
2021/08/28 12:02:58;;;;;;;3.88;1.38;;;;;26.20;101966.00;;;;4992528;28;20225;-77
2021/08/28 12:05:26;;;;;;;2.63;1.23;;;;;26.20;101965.00;;;;4992679;28;20252;-78
2021/08/28 12:07:53;;;;;;;2.03;1.45;;;;;26.10;101960.00;;;;4992659;28;20208;-77
2021/08/28 12:10:22;;;;;;;4.78;1.80;;;;;26.10;101969.00;;;;4992180;28;20216;-77
2021/08/28 12:13:01;;;;;;;1.40;1.10;;;;;26.00;101978.00;;;;4992523;28;20280;-77
2021/08/28 12:15:30;;;;;;;1.65;1.23;;;;;26.00;101969.00;;;;4992732;28;20291;-77
2021/08/28 12:17:58;;;;;;;5.03;1.48;;;;;26.00;101965.00;;;;4991851;28;20206;-77